sensor_id;sensor_type;location;lat;lon;timestamp;pressure;altitude;pressure_sealevel;temperature;humidity
39949;BME280;29070;48.102;-1.652;2023-06-24T00:01:31;102265.28;;;20.47;49.69
39949;BME280;29070;48.102;-1.652;2023-06-24T00:06:32;102260.28;;;20.39;49.62
39949;BME280;29070;48.102;-1.652;2023-06-24T00:11:33;102264.03;;;20.31;49.89
39949;BME280;29070;48.102;-1.652;2023-06-24T00:16:33;102259.38;;;20.27;50.39
39949;BME280;29070;48.102;-1.652;2023-06-24T00:21:34;102261.88;;;20.22;50.35
39949;BME280;29070;48.102;-1.652;2023-06-24T00:26:37;102255.81;;;20.14;50.65
39949;BME280;29070;48.102;-1.652;2023-06-24T00:31:37;102251.34;;;20.08;50.78
39949;BME280;29070;48.102;-1.652;2023-06-24T00:36:38;102249.78;;;20.00;51.04
39949;BME280;29070;48.102;-1.652;2023-06-24T00:41:38;102252.50;;;19.94;51.33
39949;BME280;29070;48.102;-1.652;2023-06-24T00:46:39;102244.00;;;19.85;51.62
39949;BME280;29070;48.102;-1.652;2023-06-24T00:51:40;102236.09;;;19.78;51.87
39949;BME280;29070;48.102;-1.652;2023-06-24T00:56:47;102238.75;;;19.78;52.14
39949;BME280;29070;48.102;-1.652;2023-06-24T01:01:48;102243.91;;;19.73;52.47
39949;BME280;29070;48.102;-1.652;2023-06-24T01:06:49;102241.84;;;19.69;52.53
39949;BME280;29070;48.102;-1.652;2023-06-24T01:11:50;102240.66;;;19.65;52.85
39949;BME280;29070;48.102;-1.652;2023-06-24T01:17:05;102231.16;;;19.50;54.06
39949;BME280;29070;48.102;-1.652;2023-06-24T01:32:59;102220.84;;;19.35;53.95
39949;BME280;29070;48.102;-1.652;2023-06-24T01:38:10;102216.97;;;19.31;54.71
39949;BME280;29070;48.102;-1.652;2023-06-24T01:43:17;102210.88;;;19.24;54.34
39949;BME280;29070;48.102;-1.652;2023-06-24T01:48:25;102215.88;;;19.14;55.23
39949;BME280;29070;48.102;-1.652;2023-06-24T01:53:28;102207.13;;;19.07;54.83
39949;BME280;29070;48.102;-1.652;2023-06-24T01:58:30;102209.63;;;19.01;55.20
39949;BME280;29070;48.102;-1.652;2023-06-24T02:03:32;102210.03;;;18.98;55.34
39949;BME280;29070;48.102;-1.652;2023-06-24T02:08:35;102205.56;;;18.92;55.76
39949;BME280;29070;48.102;-1.652;2023-06-24T02:13:39;102207.63;;;18.90;55.97
39949;BME280;29070;48.102;-1.652;2023-06-24T02:18:40;102207.69;;;18.83;56.24
39949;BME280;29070;48.102;-1.652;2023-06-24T02:23:44;102210.56;;;18.82;56.46
39949;BME280;29070;48.102;-1.652;2023-06-24T02:28:44;102206.44;;;18.79;56.66
39949;BME280;29070;48.102;-1.652;2023-06-24T02:33:46;102204.22;;;18.76;56.94
39949;BME280;29070;48.102;-1.652;2023-06-24T02:38:46;102208.09;;;18.74;57.16
39949;BME280;29070;48.102;-1.652;2023-06-24T02:43:47;102203.19;;;18.71;57.33
39949;BME280;29070;48.102;-1.652;2023-06-24T02:48:48;102197.53;;;18.60;57.55
39949;BME280;29070;48.102;-1.652;2023-06-24T02:53:49;102196.09;;;18.58;57.96
39949;BME280;29070;48.102;-1.652;2023-06-24T02:58:50;102193.66;;;18.56;58.06
39949;BME280;29070;48.102;-1.652;2023-06-24T03:03:55;102183.66;;;18.52;58.54
39949;BME280;29070;48.102;-1.652;2023-06-24T03:08:57;102182.47;;;18.47;58.48
39949;BME280;29070;48.102;-1.652;2023-06-24T03:13:59;102190.06;;;18.44;58.72
39949;BME280;29070;48.102;-1.652;2023-06-24T03:18:59;102192.31;;;18.40;58.95
39949;BME280;29070;48.102;-1.652;2023-06-24T03:23:59;102178.00;;;18.35;59.26
39949;BME280;29070;48.102;-1.652;2023-06-24T03:29:00;102184.78;;;18.31;59.43
39949;BME280;29070;48.102;-1.652;2023-06-24T03:34:01;102181.31;;;18.30;59.65
39949;BME280;29070;48.102;-1.652;2023-06-24T03:39:01;102183.38;;;18.28;59.92
39949;BME280;29070;48.102;-1.652;2023-06-24T03:44:03;102184.16;;;18.28;60.06
39949;BME280;29070;48.102;-1.652;2023-06-24T03:49:04;102185.41;;;18.26;60.38
39949;BME280;29070;48.102;-1.652;2023-06-24T03:54:05;102189.50;;;18.22;60.55
39949;BME280;29070;48.102;-1.652;2023-06-24T03:59:05;102189.09;;;18.18;60.70
39949;BME280;29070;48.102;-1.652;2023-06-24T04:04:05;102191.97;;;18.17;60.62
39949;BME280;29070;48.102;-1.652;2023-06-24T04:09:06;102192.63;;;18.12;60.99
39949;BME280;29070;48.102;-1.652;2023-06-24T04:14:06;102195.28;;;18.05;61.03
39949;BME280;29070;48.102;-1.652;2023-06-24T04:19:09;102195.28;;;17.99;61.08
39949;BME280;29070;48.102;-1.652;2023-06-24T04:24:09;102196.53;;;17.96;61.63
39949;BME280;29070;48.102;-1.652;2023-06-24T04:29:09;102196.13;;;17.93;61.66
39949;BME280;29070;48.102;-1.652;2023-06-24T04:34:10;102196.53;;;17.89;61.91
39949;BME280;29070;48.102;-1.652;2023-06-24T04:39:11;102181.19;;;17.85;62.18
39949;BME280;29070;48.102;-1.652;2023-06-24T04:44:11;102186.09;;;17.81;62.27
39949;BME280;29070;48.102;-1.652;2023-06-24T04:49:11;102179.78;;;17.82;62.68
39949;BME280;29070;48.102;-1.652;2023-06-24T04:54:12;102187.94;;;17.81;62.78
39949;BME280;29070;48.102;-1.652;2023-06-24T04:59:12;102185.09;;;17.76;62.80
39949;BME280;29070;48.102;-1.652;2023-06-24T05:04:12;102196.94;;;17.73;62.92
39949;BME280;29070;48.102;-1.652;2023-06-24T05:09:13;102199.81;;;17.78;63.30
39949;BME280;29070;48.102;-1.652;2023-06-24T05:14:14;102192.44;;;17.80;63.47
39949;BME280;29070;48.102;-1.652;2023-06-24T05:19:14;102179.78;;;17.82;63.57
39949;BME280;29070;48.102;-1.652;2023-06-24T05:24:16;102177.34;;;17.87;63.67
39949;BME280;29070;48.102;-1.652;2023-06-24T05:29:17;102172.84;;;17.95;63.94
39949;BME280;29070;48.102;-1.652;2023-06-24T05:34:17;102178.13;;;18.01;64.08
39949;BME280;29070;48.102;-1.652;2023-06-24T05:39:18;102174.84;;;18.06;64.07
39949;BME280;29070;48.102;-1.652;2023-06-24T05:44:18;102168.69;;;18.12;64.31
39949;BME280;29070;48.102;-1.652;2023-06-24T05:49:18;102173.75;;;18.20;64.30
39949;BME280;29070;48.102;-1.652;2023-06-24T05:54:19;102176.53;;;18.45;64.49
39949;BME280;29070;48.102;-1.652;2023-06-24T05:59:19;102179.81;;;18.79;64.64
39949;BME280;29070;48.102;-1.652;2023-06-24T06:04:20;102179.47;;;19.08;64.47
39949;BME280;29070;48.102;-1.652;2023-06-24T06:09:21;102180.63;;;19.43;64.32
39949;BME280;29070;48.102;-1.652;2023-06-24T06:14:21;102178.22;;;19.86;63.98
39949;BME280;29070;48.102;-1.652;2023-06-24T06:19:22;102182.19;;;20.32;63.10
39949;BME280;29070;48.102;-1.652;2023-06-24T06:24:22;102176.94;;;20.74;62.57
39949;BME280;29070;48.102;-1.652;2023-06-24T06:29:22;102181.19;;;21.05;62.28
39949;BME280;29070;48.102;-1.652;2023-06-24T06:34:22;102191.03;;;21.47;61.75
39949;BME280;29070;48.102;-1.652;2023-06-24T06:39:23;102198.31;;;21.87;61.13
39949;BME280;29070;48.102;-1.652;2023-06-24T06:44:23;102185.44;;;22.36;60.11
39949;BME280;29070;48.102;-1.652;2023-06-24T06:49:24;102183.94;;;22.86;59.70
39949;BME280;29070;48.102;-1.652;2023-06-24T06:54:24;102189.00;;;23.50;58.39
39949;BME280;29070;48.102;-1.652;2023-06-24T06:59:24;102182.56;;;23.68;57.75
39949;BME280;29070;48.102;-1.652;2023-06-24T07:04:24;102178.22;;;23.84;57.72
39949;BME280;29070;48.102;-1.652;2023-06-24T07:09:25;102182.44;;;23.80;57.48
39949;BME280;29070;48.102;-1.652;2023-06-24T07:14:25;102181.97;;;23.83;57.71
39949;BME280;29070;48.102;-1.652;2023-06-24T07:19:26;102184.84;;;23.98;57.35
39949;BME280;29070;48.102;-1.652;2023-06-24T07:24:26;102179.59;;;24.09;56.75
39949;BME280;29070;48.102;-1.652;2023-06-24T07:29:26;102175.56;;;24.33;56.55
39949;BME280;29070;48.102;-1.652;2023-06-24T07:34:27;102174.19;;;24.53;55.91
39949;BME280;29070;48.102;-1.652;2023-06-24T07:39:27;102171.19;;;24.77;55.81
39949;BME280;29070;48.102;-1.652;2023-06-24T07:44:27;102167.91;;;25.02;55.18
39949;BME280;29070;48.102;-1.652;2023-06-24T07:49:27;102168.94;;;25.28;54.73
39949;BME280;29070;48.102;-1.652;2023-06-24T07:54:28;102166.41;;;25.59;54.15
39949;BME280;29070;48.102;-1.652;2023-06-24T07:59:28;102150.69;;;25.88;54.16
39949;BME280;29070;48.102;-1.652;2023-06-24T08:04:29;102141.94;;;26.13;53.23
39949;BME280;29070;48.102;-1.652;2023-06-24T08:09:29;102142.50;;;26.36;52.90
39949;BME280;29070;48.102;-1.652;2023-06-24T08:14:29;102130.72;;;26.68;52.47
39949;BME280;29070;48.102;-1.652;2023-06-24T08:19:30;102131.22;;;27.06;52.14
39949;BME280;29070;48.102;-1.652;2023-06-24T08:24:31;102124.44;;;27.18;51.28
39949;BME280;29070;48.102;-1.652;2023-06-24T08:29:31;102131.72;;;27.44;50.95
39949;BME280;29070;48.102;-1.652;2023-06-24T08:34:33;102122.97;;;27.72;50.13
39949;BME280;29070;48.102;-1.652;2023-06-24T08:39:33;102111.16;;;28.13;49.21
39949;BME280;29070;48.102;-1.652;2023-06-24T08:44:33;102111.78;;;28.39;48.92
39949;BME280;29070;48.102;-1.652;2023-06-24T08:49:38;102095.38;;;28.65;47.88
39949;BME280;29070;48.102;-1.652;2023-06-24T08:54:47;102086.00;;;28.86;47.60
39949;BME280;29070;48.102;-1.652;2023-06-24T08:59:48;102098.44;;;29.12;46.97
39949;BME280;29070;48.102;-1.652;2023-06-24T09:04:50;102093.06;;;29.36;45.96
39949;BME280;29070;48.102;-1.652;2023-06-24T09:09:51;102083.59;;;29.57;45.06
39949;BME280;29070;48.102;-1.652;2023-06-24T09:14:51;102087.25;;;29.91;45.40
39949;BME280;29070;48.102;-1.652;2023-06-24T09:19:52;102080.78;;;29.87;44.10
39949;BME280;29070;48.102;-1.652;2023-06-24T09:24:53;102051.16;;;29.95;44.48
39949;BME280;29070;48.102;-1.652;2023-06-24T09:29:54;102052.06;;;30.04;43.49
39949;BME280;29070;48.102;-1.652;2023-06-24T09:34:54;102050.44;;;30.22;43.16
39949;BME280;29070;48.102;-1.652;2023-06-24T09:39:54;102048.63;;;30.51;42.37
39949;BME280;29070;48.102;-1.652;2023-06-24T09:44:56;102045.97;;;30.78;41.34
39949;BME280;29070;48.102;-1.652;2023-06-24T09:49:56;102034.16;;;31.02;41.01
39949;BME280;29070;48.102;-1.652;2023-06-24T09:54:59;102023.50;;;31.06;40.10
39949;BME280;29070;48.102;-1.652;2023-06-24T10:00:02;102016.56;;;31.13;39.92
39949;BME280;29070;48.102;-1.652;2023-06-24T10:05:03;102013.34;;;31.25;39.51
39949;BME280;29070;48.102;-1.652;2023-06-24T10:10:05;102011.41;;;31.26;38.77
39949;BME280;29070;48.102;-1.652;2023-06-24T10:15:06;102000.47;;;31.31;38.28
39949;BME280;29070;48.102;-1.652;2023-06-24T10:20:07;101988.69;;;31.35;37.50
39949;BME280;29070;48.102;-1.652;2023-06-24T10:25:08;101989.75;;;31.62;36.87
39949;BME280;29070;48.102;-1.652;2023-06-24T10:30:18;101974.34;;;31.71;36.63
39949;BME280;29070;48.102;-1.652;2023-06-24T10:35:27;101971.59;;;31.94;36.33
39949;BME280;29070;48.102;-1.652;2023-06-24T10:40:40;101963.09;;;32.09;34.73
39949;BME280;29070;48.102;-1.652;2023-06-24T10:45:51;101960.34;;;32.32;34.57
39949;BME280;29070;48.102;-1.652;2023-06-24T10:50:52;101963.13;;;32.58;34.83
39949;BME280;29070;48.102;-1.652;2023-06-24T10:55:57;101960.13;;;32.60;34.30
39949;BME280;29070;48.102;-1.652;2023-06-24T11:01:08;101937.78;;;32.72;33.17
39949;BME280;29070;48.102;-1.652;2023-06-24T11:06:10;101940.50;;;32.89;33.94
39949;BME280;29070;48.102;-1.652;2023-06-24T11:11:18;101935.06;;;32.89;33.42
39949;BME280;29070;48.102;-1.652;2023-06-24T11:16:22;101929.16;;;32.96;34.32
39949;BME280;29070;48.102;-1.652;2023-06-24T11:21:29;101911.75;;;33.05;32.22
39949;BME280;29070;48.102;-1.652;2023-06-24T11:26:30;101920.88;;;33.10;33.07
39949;BME280;29070;48.102;-1.652;2023-06-24T11:31:31;101921.34;;;33.12;32.41
39949;BME280;29070;48.102;-1.652;2023-06-24T11:36:34;101904.25;;;33.20;32.67
39949;BME280;29070;48.102;-1.652;2023-06-24T11:41:36;101891.28;;;33.34;32.51
39949;BME280;29070;48.102;-1.652;2023-06-24T11:46:37;101894.78;;;33.43;31.59
39949;BME280;29070;48.102;-1.652;2023-06-24T11:51:45;101869.00;;;33.41;30.16
39949;BME280;29070;48.102;-1.652;2023-06-24T11:56:51;101864.34;;;33.50;31.45
39949;BME280;29070;48.102;-1.652;2023-06-24T12:01:54;101856.97;;;33.51;31.45
39949;BME280;29070;48.102;-1.652;2023-06-24T12:06:54;101859.22;;;33.66;31.38
39949;BME280;29070;48.102;-1.652;2023-06-24T12:11:55;101860.75;;;33.85;30.44
39949;BME280;29070;48.102;-1.652;2023-06-24T12:16:55;101849.22;;;33.88;30.22
39949;BME280;29070;48.102;-1.652;2023-06-24T12:21:55;101849.16;;;33.96;30.33
39949;BME280;29070;48.102;-1.652;2023-06-24T12:26:56;101843.22;;;33.94;29.69
39949;BME280;29070;48.102;-1.652;2023-06-24T12:31:57;101831.38;;;33.99;29.42
39949;BME280;29070;48.102;-1.652;2023-06-24T12:36:57;101825.31;;;33.93;29.28
39949;BME280;29070;48.102;-1.652;2023-06-24T12:41:57;101812.75;;;34.01;28.69
39949;BME280;29070;48.102;-1.652;2023-06-24T12:46:58;101811.22;;;33.91;28.80
39949;BME280;29070;48.102;-1.652;2023-06-24T12:51:58;101810.41;;;33.91;29.12
39949;BME280;29070;48.102;-1.652;2023-06-24T12:56:59;101796.22;;;34.06;28.65
39949;BME280;29070;48.102;-1.652;2023-06-24T13:02:00;101795.09;;;34.07;29.28
39949;BME280;29070;48.102;-1.652;2023-06-24T13:07:00;101789.00;;;34.10;28.39
39949;BME280;29070;48.102;-1.652;2023-06-24T13:12:01;101775.47;;;34.23;28.82
39949;BME280;29070;48.102;-1.652;2023-06-24T13:17:01;101769.03;;;34.27;28.59
39949;BME280;29070;48.102;-1.652;2023-06-24T13:22:02;101776.22;;;34.32;28.14
39949;BME280;29070;48.102;-1.652;2023-06-24T13:27:02;101765.72;;;34.43;28.09
39949;BME280;29070;48.102;-1.652;2023-06-24T13:32:02;101764.06;;;34.29;27.31
39949;BME280;29070;48.102;-1.652;2023-06-24T13:37:03;101749.16;;;34.27;27.22
39949;BME280;29070;48.102;-1.652;2023-06-24T13:42:04;101755.50;;;34.40;28.08
39949;BME280;29070;48.102;-1.652;2023-06-24T13:47:04;101736.44;;;34.52;27.63
39949;BME280;29070;48.102;-1.652;2023-06-24T13:52:05;101739.31;;;34.77;27.69
39949;BME280;29070;48.102;-1.652;2023-06-24T13:57:05;101730.56;;;34.83;27.76
39949;BME280;29070;48.102;-1.652;2023-06-24T14:02:06;101727.63;;;34.88;26.72
39949;BME280;29070;48.102;-1.652;2023-06-24T14:07:08;101728.44;;;34.89;26.48
39949;BME280;29070;48.102;-1.652;2023-06-24T14:12:09;101712.19;;;34.92;26.56
39949;BME280;29070;48.102;-1.652;2023-06-24T14:17:09;101708.09;;;34.86;26.41
39949;BME280;29070;48.102;-1.652;2023-06-24T14:22:11;101706.81;;;34.84;26.31
39949;BME280;29070;48.102;-1.652;2023-06-24T14:27:12;101689.91;;;34.90;26.60
39949;BME280;29070;48.102;-1.652;2023-06-24T14:32:12;101681.50;;;34.96;25.85
39949;BME280;29070;48.102;-1.652;2023-06-24T14:37:13;101675.00;;;35.00;26.15
39949;BME280;29070;48.102;-1.652;2023-06-24T14:42:13;101673.53;;;34.90;25.98
39949;BME280;29070;48.102;-1.652;2023-06-24T14:47:13;101666.25;;;34.94;25.46
39949;BME280;29070;48.102;-1.652;2023-06-24T14:52:14;101657.28;;;34.94;25.54
39949;BME280;29070;48.102;-1.652;2023-06-24T14:57:14;101646.34;;;34.82;24.89
39949;BME280;29070;48.102;-1.652;2023-06-24T15:02:16;101656.94;;;34.83;25.15
39949;BME280;29070;48.102;-1.652;2023-06-24T15:07:17;101648.03;;;34.74;25.44
39949;BME280;29070;48.102;-1.652;2023-06-24T15:12:18;101636.00;;;34.75;25.16
39949;BME280;29070;48.102;-1.652;2023-06-24T15:17:18;101623.38;;;34.70;24.70
39949;BME280;29070;48.102;-1.652;2023-06-24T15:22:19;101618.41;;;34.85;24.75
39949;BME280;29070;48.102;-1.652;2023-06-24T15:27:20;101622.25;;;34.84;24.39
39949;BME280;29070;48.102;-1.652;2023-06-24T15:32:20;101611.34;;;34.84;24.63
39949;BME280;29070;48.102;-1.652;2023-06-24T15:37:21;101614.72;;;34.68;24.15
39949;BME280;29070;48.102;-1.652;2023-06-24T15:42:21;101614.16;;;34.75;24.57
39949;BME280;29070;48.102;-1.652;2023-06-24T15:47:22;101601.88;;;34.69;24.21
39949;BME280;29070;48.102;-1.652;2023-06-24T15:52:22;101597.41;;;34.64;24.76
39949;BME280;29070;48.102;-1.652;2023-06-24T15:57:22;101591.28;;;34.67;24.33
39949;BME280;29070;48.102;-1.652;2023-06-24T16:02:23;101578.66;;;34.63;24.59
39949;BME280;29070;48.102;-1.652;2023-06-24T16:07:23;101568.09;;;34.49;24.50
39949;BME280;29070;48.102;-1.652;2023-06-24T16:12:23;101566.38;;;34.44;24.81
39949;BME280;29070;48.102;-1.652;2023-06-24T16:17:24;101555.31;;;34.28;24.95
39949;BME280;29070;48.102;-1.652;2023-06-24T16:22:24;101555.13;;;34.12;24.36
39949;BME280;29070;48.102;-1.652;2023-06-24T16:27:24;101551.94;;;34.10;25.32
39949;BME280;29070;48.102;-1.652;2023-06-24T16:32:25;101536.94;;;34.04;25.37
39949;BME280;29070;48.102;-1.652;2023-06-24T16:37:25;101535.34;;;34.03;24.86
39949;BME280;29070;48.102;-1.652;2023-06-24T16:42:25;101533.38;;;33.91;25.22
39949;BME280;29070;48.102;-1.652;2023-06-24T16:47:26;101520.50;;;33.79;25.41
39949;BME280;29070;48.102;-1.652;2023-06-24T16:52:26;101518.44;;;33.76;25.37
39949;BME280;29070;48.102;-1.652;2023-06-24T16:57:27;101513.56;;;33.70;25.03
39949;BME280;29070;48.102;-1.652;2023-06-24T17:02:27;101513.56;;;33.70;24.95
39949;BME280;29070;48.102;-1.652;2023-06-24T17:07:28;101518.91;;;33.57;25.02
39949;BME280;29070;48.102;-1.652;2023-06-24T17:12:29;101517.81;;;33.50;25.25
39949;BME280;29070;48.102;-1.652;2023-06-24T17:17:29;101514.72;;;33.39;25.41
39949;BME280;29070;48.102;-1.652;2023-06-24T17:22:30;101504.44;;;33.23;25.17
39949;BME280;29070;48.102;-1.652;2023-06-24T17:27:30;101507.03;;;33.11;25.22
39949;BME280;29070;48.102;-1.652;2023-06-24T17:32:30;101505.81;;;33.00;26.21
39949;BME280;29070;48.102;-1.652;2023-06-24T17:37:31;101503.53;;;32.81;26.26
39949;BME280;29070;48.102;-1.652;2023-06-24T17:42:31;101492.72;;;32.63;26.59
39949;BME280;29070;48.102;-1.652;2023-06-24T17:47:31;101478.53;;;32.49;26.51
39949;BME280;29070;48.102;-1.652;2023-06-24T17:52:32;101471.69;;;32.43;26.48
39949;BME280;29070;48.102;-1.652;2023-06-24T17:57:32;101464.19;;;32.31;26.80
39949;BME280;29070;48.102;-1.652;2023-06-24T18:02:32;101461.69;;;32.17;27.06
39949;BME280;29070;48.102;-1.652;2023-06-24T18:07:33;101466.81;;;32.01;27.56
39949;BME280;29070;48.102;-1.652;2023-06-24T18:12:33;101469.22;;;31.85;27.65
39949;BME280;29070;48.102;-1.652;2023-06-24T18:17:33;101467.81;;;31.70;27.94
39949;BME280;29070;48.102;-1.652;2023-06-24T18:22:34;101461.91;;;31.60;27.86
39949;BME280;29070;48.102;-1.652;2023-06-24T18:27:35;101464.13;;;31.49;28.33
39949;BME280;29070;48.102;-1.652;2023-06-24T18:32:35;101460.59;;;31.31;28.39
39949;BME280;29070;48.102;-1.652;2023-06-24T18:37:36;101456.28;;;31.21;28.73
39949;BME280;29070;48.102;-1.652;2023-06-24T18:42:37;101453.41;;;31.09;28.90
39949;BME280;29070;48.102;-1.652;2023-06-24T18:47:37;101458.31;;;30.98;29.54
39949;BME280;29070;48.102;-1.652;2023-06-24T18:52:38;101458.59;;;30.88;29.63
39949;BME280;29070;48.102;-1.652;2023-06-24T18:57:38;101448.97;;;30.73;29.90
39949;BME280;29070;48.102;-1.652;2023-06-24T19:02:38;101457.03;;;30.55;30.27
39949;BME280;29070;48.102;-1.652;2023-06-24T19:07:39;101458.88;;;30.37;31.01
39949;BME280;29070;48.102;-1.652;2023-06-24T19:12:39;101470.25;;;30.26;30.74
39949;BME280;29070;48.102;-1.652;2023-06-24T19:17:39;101475.75;;;30.12;30.99
39949;BME280;29070;48.102;-1.652;2023-06-24T19:22:40;101479.03;;;30.00;31.18
39949;BME280;29070;48.102;-1.652;2023-06-24T19:27:40;101474.28;;;29.83;31.41
39949;BME280;29070;48.102;-1.652;2023-06-24T19:32:40;101471.28;;;29.71;31.79
39949;BME280;29070;48.102;-1.652;2023-06-24T19:37:43;101471.16;;;29.53;32.11
39949;BME280;29070;48.102;-1.652;2023-06-24T19:42:44;101461.91;;;29.32;32.42
39949;BME280;29070;48.102;-1.652;2023-06-24T19:47:45;101453.09;;;29.12;32.97
39949;BME280;29070;48.102;-1.652;2023-06-24T19:52:45;101463.81;;;28.89;33.06
39949;BME280;29070;48.102;-1.652;2023-06-24T19:57:46;101468.22;;;28.71;33.63
39949;BME280;29070;48.102;-1.652;2023-06-24T20:02:47;101472.09;;;28.51;33.74
39949;BME280;29070;48.102;-1.652;2023-06-24T20:07:47;101468.13;;;28.30;34.54
39949;BME280;29070;48.102;-1.652;2023-06-24T20:12:48;101474.97;;;28.08;34.64
39949;BME280;29070;48.102;-1.652;2023-06-24T20:17:49;101476.88;;;27.89;35.07
39949;BME280;29070;48.102;-1.652;2023-06-24T20:22:49;101469.09;;;27.68;34.98
39949;BME280;29070;48.102;-1.652;2023-06-24T20:27:50;101462.38;;;27.47;35.87
39949;BME280;29070;48.102;-1.652;2023-06-24T20:32:50;101455.63;;;27.25;35.93
39949;BME280;29070;48.102;-1.652;2023-06-24T20:37:50;101461.28;;;27.05;36.59
39949;BME280;29070;48.102;-1.652;2023-06-24T20:42:51;101449.94;;;26.84;37.09
39949;BME280;29070;48.102;-1.652;2023-06-24T20:47:52;101447.19;;;26.65;37.66
39949;BME280;29070;48.102;-1.652;2023-06-24T20:52:52;101451.09;;;26.48;37.61
39949;BME280;29070;48.102;-1.652;2023-06-24T20:57:52;101444.81;;;26.29;38.25
39949;BME280;29070;48.102;-1.652;2023-06-24T21:02:53;101458.41;;;26.13;38.50
39949;BME280;29070;48.102;-1.652;2023-06-24T21:07:53;101459.59;;;25.97;38.82
39949;BME280;29070;48.102;-1.652;2023-06-24T21:12:54;101467.53;;;25.78;39.55
39949;BME280;29070;48.102;-1.652;2023-06-24T21:17:54;101456.84;;;25.62;39.48
39949;BME280;29070;48.102;-1.652;2023-06-24T21:22:55;101459.94;;;25.45;39.87
39949;BME280;29070;48.102;-1.652;2023-06-24T21:27:55;101450.34;;;25.29;40.15
39949;BME280;29070;48.102;-1.652;2023-06-24T21:32:55;101450.88;;;25.16;40.64
39949;BME280;29070;48.102;-1.652;2023-06-24T21:37:56;101432.38;;;25.04;40.90
39949;BME280;29070;48.102;-1.652;2023-06-24T21:42:56;101423.81;;;24.97;41.28
39949;BME280;29070;48.102;-1.652;2023-06-24T21:47:56;101424.91;;;24.96;41.63
39949;BME280;29070;48.102;-1.652;2023-06-24T21:52:58;101416.63;;;24.87;41.83
39949;BME280;29070;48.102;-1.652;2023-06-24T21:57:58;101410.22;;;24.72;42.02
39949;BME280;29070;48.102;-1.652;2023-06-24T22:02:59;101401.66;;;24.60;42.57
39949;BME280;29070;48.102;-1.652;2023-06-24T22:07:59;101406.75;;;24.46;42.65
39949;BME280;29070;48.102;-1.652;2023-06-24T22:12:59;101410.56;;;24.30;43.33
39949;BME280;29070;48.102;-1.652;2023-06-24T22:18:00;101404.41;;;24.14;43.63
39949;BME280;29070;48.102;-1.652;2023-06-24T22:23:00;101420.47;;;24.04;44.08
39949;BME280;29070;48.102;-1.652;2023-06-24T22:28:00;101425.84;;;24.04;44.76
39949;BME280;29070;48.102;-1.652;2023-06-24T22:33:01;101432.03;;;24.04;45.04
39949;BME280;29070;48.102;-1.652;2023-06-24T22:38:01;101439.56;;;24.02;45.22
39949;BME280;29070;48.102;-1.652;2023-06-24T22:43:02;101432.81;;;23.94;45.52
39949;BME280;29070;48.102;-1.652;2023-06-24T22:48:02;101426.91;;;23.82;45.96
39949;BME280;29070;48.102;-1.652;2023-06-24T22:53:03;101439.19;;;23.73;46.06
39949;BME280;29070;48.102;-1.652;2023-06-24T22:58:03;101445.34;;;23.58;46.01
39949;BME280;29070;48.102;-1.652;2023-06-24T23:03:04;101439.69;;;23.44;46.60
39949;BME280;29070;48.102;-1.652;2023-06-24T23:08:05;101445.00;;;23.34;47.28
39949;BME280;29070;48.102;-1.652;2023-06-24T23:13:06;101425.13;;;23.19;47.44
39949;BME280;29070;48.102;-1.652;2023-06-24T23:18:07;101414.94;;;23.11;48.17
39949;BME280;29070;48.102;-1.652;2023-06-24T23:23:09;101406.88;;;23.06;48.11
39949;BME280;29070;48.102;-1.652;2023-06-24T23:28:14;101403.91;;;23.02;48.48
39949;BME280;29070;48.102;-1.652;2023-06-24T23:33:17;101401.72;;;22.99;48.84
39949;BME280;29070;48.102;-1.652;2023-06-24T23:38:18;101391.81;;;22.95;49.10
39949;BME280;29070;48.102;-1.652;2023-06-24T23:43:19;101397.16;;;22.90;49.46
39949;BME280;29070;48.102;-1.652;2023-06-24T23:48:20;101398.72;;;22.80;49.65
39949;BME280;29070;48.102;-1.652;2023-06-24T23:53:21;101401.84;;;22.67;49.95
39949;BME280;29070;48.102;-1.652;2023-06-24T23:58:21;101388.38;;;22.52;50.06
